This is the latest recevied weather packets stored in our database for station/object VE4GLS. If no packets are shown the sender has not sent any weather packets the latest 10 day(s).
| Time | Temp. | Humidity | Pressure | Rain* | Wind** | Luminosity | Snow |
|---|---|---|---|---|---|---|---|
| 1778173895 | 9.44° C | 40% | 1008.6 hPa | 0 mm | - | - | - |
| 1778173355 | 9.44° C | 38% | 1008.8 hPa | 0 mm | - | - | - |
| 1778173295 | 9.44° C | 39% | 1008.7 hPa | 0 mm | - | - | - |
| 1778172696 | 8.89° C | 40% | 1008.9 hPa | 0 mm | - | - | - |
| 1778172456 | 8.89° C | 40% | 1008.9 hPa | 0 mm | - | - | - |
| 1778172095 | 8.89° C | 41% | 1008.9 hPa | 0 mm | - | - | - |
| 1778171555 | 8.33° C | 42% | 1009 hPa | 0 mm | - | - | - |
| 1778171495 | 8.33° C | 41% | 1009 hPa | 0 mm | - | - | - |
| 1778170895 | 8.33° C | 41% | 1009.1 hPa | 0 mm | - | - | - |
| 1778170654 | 8.33° C | 41% | 1009.2 hPa | 0 mm | - | - | - |
| 1778170295 | 8.33° C | 41% | 1009.3 hPa | 0 mm | - | - | - |
| 1778169755 | 8.33° C | 43% | 1009.4 hPa | 0 mm | - | - | - |
| 1778169694 | 8.33° C | 42% | 1009.4 hPa | 0 mm | - | - | - |
| 1778169094 | 7.78° C | 45% | 1009.5 hPa | 0 mm | - | - | - |
| 1778168854 | 7.22° C | 46% | 1009.5 hPa | 0 mm | - | - | - |
| 1778168494 | 7.22° C | 44% | 1009.5 hPa | 0 mm | - | - | - |
| 1778167955 | 7.22° C | 46% | 1009.5 hPa | 0 mm | - | - | - |
| 1778167895 | 7.22° C | 44% | 1009.6 hPa | 0 mm | - | - | - |
| 1778167294 | 6.67° C | 47% | 1009.6 hPa | 0 mm | - | - | - |
| 1778167054 | 6.67° C | 47% | 1009.6 hPa | 0 mm | - | - | - |
| 1778166696 | 6.67° C | 48% | 1009.7 hPa | 0 mm | - | - | - |
| 1778166155 | 6.11° C | 50% | 1009.7 hPa | 0 mm | - | - | - |
| 1778166094 | 6.11° C | 50% | 1009.7 hPa | 0 mm | - | - | - |
| 1778165495 | 5° C | 51% | 1009.7 hPa | 0 mm | - | - | - |
| 1778165254 | 5° C | 51% | 1009.7 hPa | 0 mm | - | - | - |
* Rain latest hour (hover to see other rain measurements)
** Current wind speed in m/s (hover to see current wind gust speed)